San Diego, California
Traffic Map
Current Weather Conditions
San Diego, California
Clear
Clear
59°
Feels Like: 59°
Wind Chill: 59° Ceiling: Unl
Heat Index: 59° Visibility: 10mi
Dew Point: 24° Wind: 0mph
Humidity: 26% Direction: ° ()
Pressure: 30.26in Gusts: 0mph
Raw Report DataKSAN 260851Z 00000KT 10SM CLR 15/M04 A3026 RMK AO2 SLP246 T01501044 58010
Traffic Incident Summary
Active as of:
Severity:
Category:
InformationThere was an issue retrieving the traffic information for this location. Please try a different location or try again shortly.
Advertisements
Track Severe Weather on mobile